sensor_id;sensor_type;location;lat;lon;timestamp;temperature;humidity
21849;DHT22;11089;49.852;19.700;2024-02-14T00:02:30;3.90;1.00
21849;DHT22;11089;49.852;19.700;2024-02-14T00:05:31;3.90;1.00
21849;DHT22;11089;49.852;19.700;2024-02-14T00:08:32;3.80;1.00
21849;DHT22;11089;49.852;19.700;2024-02-14T00:11:33;3.80;1.00
21849;DHT22;11089;49.852;19.700;2024-02-14T00:14:34;3.80;1.00
21849;DHT22;11089;49.852;19.700;2024-02-14T00:17:35;3.80;1.00
21849;DHT22;11089;49.852;19.700;2024-02-14T00:20:35;3.70;1.00
21849;DHT22;11089;49.852;19.700;2024-02-14T00:23:36;3.60;1.00
21849;DHT22;11089;49.852;19.700;2024-02-14T00:26:37;3.60;1.00
21849;DHT22;11089;49.852;19.700;2024-02-14T00:29:40;3.60;1.00
21849;DHT22;11089;49.852;19.700;2024-02-14T00:32:41;3.60;1.00
21849;DHT22;11089;49.852;19.700;2024-02-14T00:35:42;3.60;1.00
21849;DHT22;11089;49.852;19.700;2024-02-14T00:38:43;3.50;1.00
21849;DHT22;11089;49.852;19.700;2024-02-14T00:41:46;3.50;1.00
21849;DHT22;11089;49.852;19.700;2024-02-14T00:44:48;3.50;1.00
21849;DHT22;11089;49.852;19.700;2024-02-14T00:47:49;3.60;1.00
21849;DHT22;11089;49.852;19.700;2024-02-14T00:50:49;3.60;1.00
21849;DHT22;11089;49.852;19.700;2024-02-14T00:53:52;3.60;1.00
21849;DHT22;11089;49.852;19.700;2024-02-14T00:56:53;3.60;1.00
21849;DHT22;11089;49.852;19.700;2024-02-14T00:59:54;3.60;1.00
21849;DHT22;11089;49.852;19.700;2024-02-14T01:02:57;3.60;1.00
21849;DHT22;11089;49.852;19.700;2024-02-14T01:05:58;3.50;99.90
21849;DHT22;11089;49.852;19.700;2024-02-14T01:08:59;3.50;99.90
21849;DHT22;11089;49.852;19.700;2024-02-14T01:12:00;3.50;99.90
21849;DHT22;11089;49.852;19.700;2024-02-14T01:15:00;3.50;99.90
21849;DHT22;11089;49.852;19.700;2024-02-14T01:18:01;3.50;99.90
21849;DHT22;11089;49.852;19.700;2024-02-14T01:21:02;3.60;99.90
21849;DHT22;11089;49.852;19.700;2024-02-14T01:24:04;3.60;99.90
21849;DHT22;11089;49.852;19.700;2024-02-14T01:27:05;3.60;99.90
21849;DHT22;11089;49.852;19.700;2024-02-14T01:30:07;3.50;1.00
21849;DHT22;11089;49.852;19.700;2024-02-14T01:33:08;3.60;99.90
21849;DHT22;11089;49.852;19.700;2024-02-14T01:36:09;3.60;29.90
21849;DHT22;11089;49.852;19.700;2024-02-14T01:39:10;3.50;95.90
21849;DHT22;11089;49.852;19.700;2024-02-14T01:42:11;3.50;1.00
21849;DHT22;11089;49.852;19.700;2024-02-14T01:45:12;3.50;1.00
21849;DHT22;11089;49.852;19.700;2024-02-14T01:48:13;3.50;1.00
21849;DHT22;11089;49.852;19.700;2024-02-14T01:51:17;3.50;1.00
21849;DHT22;11089;49.852;19.700;2024-02-14T01:54:19;3.60;18.20
21849;DHT22;11089;49.852;19.700;2024-02-14T01:57:21;3.50;1.00
21849;DHT22;11089;49.852;19.700;2024-02-14T02:00:23;3.50;1.00
21849;DHT22;11089;49.852;19.700;2024-02-14T02:03:25;3.50;99.90
21849;DHT22;11089;49.852;19.700;2024-02-14T02:06:26;3.50;99.90
21849;DHT22;11089;49.852;19.700;2024-02-14T02:09:28;3.50;99.90
21849;DHT22;11089;49.852;19.700;2024-02-14T02:12:29;3.50;99.90
21849;DHT22;11089;49.852;19.700;2024-02-14T02:15:30;3.50;99.90
21849;DHT22;11089;49.852;19.700;2024-02-14T02:18:34;3.50;8.20
21849;DHT22;11089;49.852;19.700;2024-02-14T02:21:35;3.60;1.00
21849;DHT22;11089;49.852;19.700;2024-02-14T02:24:36;3.50;1.00
21849;DHT22;11089;49.852;19.700;2024-02-14T02:27:37;3.50;1.00
21849;DHT22;11089;49.852;19.700;2024-02-14T02:30:38;3.50;1.00
21849;DHT22;11089;49.852;19.700;2024-02-14T02:33:39;3.60;1.00
21849;DHT22;11089;49.852;19.700;2024-02-14T02:36:41;3.60;1.00
21849;DHT22;11089;49.852;19.700;2024-02-14T02:39:42;3.60;1.00
21849;DHT22;11089;49.852;19.700;2024-02-14T02:42:43;3.60;1.00
21849;DHT22;11089;49.852;19.700;2024-02-14T02:45:45;3.60;1.00
21849;DHT22;11089;49.852;19.700;2024-02-14T02:48:47;3.60;1.00
21849;DHT22;11089;49.852;19.700;2024-02-14T02:51:48;3.50;1.00
21849;DHT22;11089;49.852;19.700;2024-02-14T02:54:49;3.60;1.00
21849;DHT22;11089;49.852;19.700;2024-02-14T02:57:51;3.50;1.00
21849;DHT22;11089;49.852;19.700;2024-02-14T03:00:53;3.60;1.00
21849;DHT22;11089;49.852;19.700;2024-02-14T03:03:56;3.50;1.00
21849;DHT22;11089;49.852;19.700;2024-02-14T03:06:58;3.50;1.00
21849;DHT22;11089;49.852;19.700;2024-02-14T03:09:59;3.50;1.00
21849;DHT22;11089;49.852;19.700;2024-02-14T03:13:00;3.40;1.00
21849;DHT22;11089;49.852;19.700;2024-02-14T03:16:01;3.40;1.00
21849;DHT22;11089;49.852;19.700;2024-02-14T03:19:02;3.40;1.00
21849;DHT22;11089;49.852;19.700;2024-02-14T03:22:04;3.50;1.00
21849;DHT22;11089;49.852;19.700;2024-02-14T03:25:06;3.50;1.00
21849;DHT22;11089;49.852;19.700;2024-02-14T03:28:08;3.50;1.00
21849;DHT22;11089;49.852;19.700;2024-02-14T03:31:09;3.50;48.10
21849;DHT22;11089;49.852;19.700;2024-02-14T03:34:15;3.40;99.90
21849;DHT22;11089;49.852;19.700;2024-02-14T03:37:16;3.50;99.90
21849;DHT22;11089;49.852;19.700;2024-02-14T03:40:19;3.40;1.00
21849;DHT22;11089;49.852;19.700;2024-02-14T03:43:22;3.50;1.00
21849;DHT22;11089;49.852;19.700;2024-02-14T03:46:24;3.50;99.90
21849;DHT22;11089;49.852;19.700;2024-02-14T03:49:25;3.40;1.00
21849;DHT22;11089;49.852;19.700;2024-02-14T03:52:26;3.40;1.00
21849;DHT22;11089;49.852;19.700;2024-02-14T03:55:27;3.30;1.00
21849;DHT22;11089;49.852;19.700;2024-02-14T03:58:28;3.30;99.90
21849;DHT22;11089;49.852;19.700;2024-02-14T04:01:29;3.30;1.00
21849;DHT22;11089;49.852;19.700;2024-02-14T04:04:31;3.30;1.00
21849;DHT22;11089;49.852;19.700;2024-02-14T04:07:33;3.30;9.00
21849;DHT22;11089;49.852;19.700;2024-02-14T04:10:38;3.40;1.00
21849;DHT22;11089;49.852;19.700;2024-02-14T04:13:39;3.40;99.90
21849;DHT22;11089;49.852;19.700;2024-02-14T04:16:40;3.30;99.90
21849;DHT22;11089;49.852;19.700;2024-02-14T04:19:41;3.30;99.90
21849;DHT22;11089;49.852;19.700;2024-02-14T04:22:42;3.30;1.00
21849;DHT22;11089;49.852;19.700;2024-02-14T04:25:44;3.30;1.00
21849;DHT22;11089;49.852;19.700;2024-02-14T04:28:44;3.30;1.00
21849;DHT22;11089;49.852;19.700;2024-02-14T04:31:45;3.30;99.90
21849;DHT22;11089;49.852;19.700;2024-02-14T04:34:46;3.30;99.90
21849;DHT22;11089;49.852;19.700;2024-02-14T04:37:47;3.30;99.90
21849;DHT22;11089;49.852;19.700;2024-02-14T04:40:49;3.30;1.00
21849;DHT22;11089;49.852;19.700;2024-02-14T04:43:50;3.20;1.00
21849;DHT22;11089;49.852;19.700;2024-02-14T04:46:51;3.10;1.00
21849;DHT22;11089;49.852;19.700;2024-02-14T04:49:51;3.10;99.90
21849;DHT22;11089;49.852;19.700;2024-02-14T04:52:53;3.10;1.00
21849;DHT22;11089;49.852;19.700;2024-02-14T04:55:54;3.20;1.00
21849;DHT22;11089;49.852;19.700;2024-02-14T04:58:55;3.20;1.00
21849;DHT22;11089;49.852;19.700;2024-02-14T05:01:56;3.10;1.00
21849;DHT22;11089;49.852;19.700;2024-02-14T05:04:57;3.10;1.00
21849;DHT22;11089;49.852;19.700;2024-02-14T05:07:57;3.10;99.90
21849;DHT22;11089;49.852;19.700;2024-02-14T05:10:59;2.90;1.00
21849;DHT22;11089;49.852;19.700;2024-02-14T05:13:59;2.90;99.90
21849;DHT22;11089;49.852;19.700;2024-02-14T05:17:02;2.80;1.00
21849;DHT22;11089;49.852;19.700;2024-02-14T05:20:03;2.80;1.00
21849;DHT22;11089;49.852;19.700;2024-02-14T05:23:09;2.60;99.90
21849;DHT22;11089;49.852;19.700;2024-02-14T05:26:11;2.60;1.00
21849;DHT22;11089;49.852;19.700;2024-02-14T05:29:12;2.60;99.90
21849;DHT22;11089;49.852;19.700;2024-02-14T05:32:14;2.50;99.90
21849;DHT22;11089;49.852;19.700;2024-02-14T05:35:15;2.50;99.90
21849;DHT22;11089;49.852;19.700;2024-02-14T05:38:16;2.50;8.20
21849;DHT22;11089;49.852;19.700;2024-02-14T05:41:20;2.40;1.00
21849;DHT22;11089;49.852;19.700;2024-02-14T05:44:20;2.30;99.90
21849;DHT22;11089;49.852;19.700;2024-02-14T05:47:23;2.20;1.00
21849;DHT22;11089;49.852;19.700;2024-02-14T05:50:24;2.10;1.00
21849;DHT22;11089;49.852;19.700;2024-02-14T05:53:25;2.10;1.00
21849;DHT22;11089;49.852;19.700;2024-02-14T05:56:26;2.20;1.00
21849;DHT22;11089;49.852;19.700;2024-02-14T05:59:27;2.10;1.00
21849;DHT22;11089;49.852;19.700;2024-02-14T06:02:28;2.10;1.00
21849;DHT22;11089;49.852;19.700;2024-02-14T06:05:29;2.00;1.00
21849;DHT22;11089;49.852;19.700;2024-02-14T06:08:29;2.00;1.00
21849;DHT22;11089;49.852;19.700;2024-02-14T06:11:30;2.00;1.00
21849;DHT22;11089;49.852;19.700;2024-02-14T06:14:31;2.00;1.00
21849;DHT22;11089;49.852;19.700;2024-02-14T06:17:34;2.00;99.90
21849;DHT22;11089;49.852;19.700;2024-02-14T06:20:35;2.00;99.90
21849;DHT22;11089;49.852;19.700;2024-02-14T06:23:37;1.90;99.90
21849;DHT22;11089;49.852;19.700;2024-02-14T06:26:39;1.80;99.90
21849;DHT22;11089;49.852;19.700;2024-02-14T06:29:43;1.70;1.00
21849;DHT22;11089;49.852;19.700;2024-02-14T06:32:44;1.70;1.00
21849;DHT22;11089;49.852;19.700;2024-02-14T06:35:45;1.60;1.00
21849;DHT22;11089;49.852;19.700;2024-02-14T06:38:46;1.50;1.00
21849;DHT22;11089;49.852;19.700;2024-02-14T06:41:47;1.60;1.00
21849;DHT22;11089;49.852;19.700;2024-02-14T06:44:48;1.50;1.00
21849;DHT22;11089;49.852;19.700;2024-02-14T06:47:50;1.50;1.00
21849;DHT22;11089;49.852;19.700;2024-02-14T06:50:51;1.40;99.90
21849;DHT22;11089;49.852;19.700;2024-02-14T06:53:52;1.50;1.00
21849;DHT22;11089;49.852;19.700;2024-02-14T06:56:53;1.50;1.00
21849;DHT22;11089;49.852;19.700;2024-02-14T06:59:54;1.60;1.00
21849;DHT22;11089;49.852;19.700;2024-02-14T07:02:54;1.60;1.00
21849;DHT22;11089;49.852;19.700;2024-02-14T07:05:55;1.60;1.00
21849;DHT22;11089;49.852;19.700;2024-02-14T07:08:56;1.60;1.00
21849;DHT22;11089;49.852;19.700;2024-02-14T07:11:57;1.60;1.00
21849;DHT22;11089;49.852;19.700;2024-02-14T07:14:59;1.60;1.00
21849;DHT22;11089;49.852;19.700;2024-02-14T07:17:59;1.60;1.00
21849;DHT22;11089;49.852;19.700;2024-02-14T07:21:00;1.70;1.00
21849;DHT22;11089;49.852;19.700;2024-02-14T07:24:02;1.70;1.00
21849;DHT22;11089;49.852;19.700;2024-02-14T07:27:03;1.80;1.00
21849;DHT22;11089;49.852;19.700;2024-02-14T07:30:05;1.80;1.00
21849;DHT22;11089;49.852;19.700;2024-02-14T07:33:06;1.80;1.00
21849;DHT22;11089;49.852;19.700;2024-02-14T07:36:08;2.00;1.00
21849;DHT22;11089;49.852;19.700;2024-02-14T07:39:09;2.10;99.90
21849;DHT22;11089;49.852;19.700;2024-02-14T07:42:10;2.10;99.90
21849;DHT22;11089;49.852;19.700;2024-02-14T07:45:11;2.20;99.90
21849;DHT22;11089;49.852;19.700;2024-02-14T07:48:13;2.20;99.90
21849;DHT22;11089;49.852;19.700;2024-02-14T07:51:14;2.30;65.80
21849;DHT22;11089;49.852;19.700;2024-02-14T07:54:15;2.50;1.00
21849;DHT22;11089;49.852;19.700;2024-02-14T07:57:16;2.80;1.00
21849;DHT22;11089;49.852;19.700;2024-02-14T08:00:17;3.30;1.00
21849;DHT22;11089;49.852;19.700;2024-02-14T08:03:23;3.70;1.00
21849;DHT22;11089;49.852;19.700;2024-02-14T08:06:25;4.20;1.00
21849;DHT22;11089;49.852;19.700;2024-02-14T08:09:26;4.70;99.90
21849;DHT22;11089;49.852;19.700;2024-02-14T08:12:27;5.10;99.90
21849;DHT22;11089;49.852;19.700;2024-02-14T08:15:27;5.40;99.90
21849;DHT22;11089;49.852;19.700;2024-02-14T08:18:28;5.80;99.90
21849;DHT22;11089;49.852;19.700;2024-02-14T08:21:29;6.10;99.90
21849;DHT22;11089;49.852;19.700;2024-02-14T08:24:31;6.30;1.00
21849;DHT22;11089;49.852;19.700;2024-02-14T08:27:32;6.50;1.00
21849;DHT22;11089;49.852;19.700;2024-02-14T08:30:33;6.70;1.00
21849;DHT22;11089;49.852;19.700;2024-02-14T08:33:34;6.90;1.00
21849;DHT22;11089;49.852;19.700;2024-02-14T08:36:36;7.00;1.00
21849;DHT22;11089;49.852;19.700;2024-02-14T08:39:42;7.10;1.00
21849;DHT22;11089;49.852;19.700;2024-02-14T08:42:42;7.50;1.00
21849;DHT22;11089;49.852;19.700;2024-02-14T08:45:43;7.90;1.00
21849;DHT22;11089;49.852;19.700;2024-02-14T08:48:44;8.60;1.00
21849;DHT22;11089;49.852;19.700;2024-02-14T08:51:49;9.10;1.00
21849;DHT22;11089;49.852;19.700;2024-02-14T08:54:50;9.50;1.00
21849;DHT22;11089;49.852;19.700;2024-02-14T08:57:51;9.80;1.00
21849;DHT22;11089;49.852;19.700;2024-02-14T09:00:52;9.50;1.00
21849;DHT22;11089;49.852;19.700;2024-02-14T09:03:54;9.70;1.00
21849;DHT22;11089;49.852;19.700;2024-02-14T09:06:56;9.80;1.00
21849;DHT22;11089;49.852;19.700;2024-02-14T09:09:57;10.20;1.00
21849;DHT22;11089;49.852;19.700;2024-02-14T09:12:58;10.50;1.00
21849;DHT22;11089;49.852;19.700;2024-02-14T09:15:59;11.10;1.00
21849;DHT22;11089;49.852;19.700;2024-02-14T09:19:00;11.20;99.90
21849;DHT22;11089;49.852;19.700;2024-02-14T09:22:07;11.20;99.90
21849;DHT22;11089;49.852;19.700;2024-02-14T09:25:08;11.20;99.90
21849;DHT22;11089;49.852;19.700;2024-02-14T09:28:12;11.40;99.90
21849;DHT22;11089;49.852;19.700;2024-02-14T09:31:18;11.60;99.90
21849;DHT22;11089;49.852;19.700;2024-02-14T09:34:20;11.40;99.90
21849;DHT22;11089;49.852;19.700;2024-02-14T09:37:22;11.50;99.90
21849;DHT22;11089;49.852;19.700;2024-02-14T09:40:24;11.40;99.90
21849;DHT22;11089;49.852;19.700;2024-02-14T09:43:36;11.60;99.90
21849;DHT22;11089;49.852;19.700;2024-02-14T09:46:38;12.00;99.90
21849;DHT22;11089;49.852;19.700;2024-02-14T09:49:39;13.10;99.90
21849;DHT22;11089;49.852;19.700;2024-02-14T09:52:42;13.90;99.90
21849;DHT22;11089;49.852;19.700;2024-02-14T09:55:46;14.40;99.90
21849;DHT22;11089;49.852;19.700;2024-02-14T09:58:47;14.90;99.90
21849;DHT22;11089;49.852;19.700;2024-02-14T10:01:56;14.90;99.90
21849;DHT22;11089;49.852;19.700;2024-02-14T10:04:56;15.60;99.90
21849;DHT22;11089;49.852;19.700;2024-02-14T10:07:58;16.10;99.90
21849;DHT22;11089;49.852;19.700;2024-02-14T10:10:58;15.80;99.90
21849;DHT22;11089;49.852;19.700;2024-02-14T10:14:00;15.90;99.90
21849;DHT22;11089;49.852;19.700;2024-02-14T10:17:06;16.50;99.90
21849;DHT22;11089;49.852;19.700;2024-02-14T10:20:16;16.90;99.90
21849;DHT22;11089;49.852;19.700;2024-02-14T10:23:17;16.40;99.90
21849;DHT22;11089;49.852;19.700;2024-02-14T10:26:18;16.20;99.90
21849;DHT22;11089;49.852;19.700;2024-02-14T10:29:20;16.80;99.90
21849;DHT22;11089;49.852;19.700;2024-02-14T10:32:23;16.80;99.90
21849;DHT22;11089;49.852;19.700;2024-02-14T10:35:25;16.90;99.90
21849;DHT22;11089;49.852;19.700;2024-02-14T10:38:27;17.30;99.90
21849;DHT22;11089;49.852;19.700;2024-02-14T10:41:31;17.90;99.90
21849;DHT22;11089;49.852;19.700;2024-02-14T10:44:35;18.00;99.90
21849;DHT22;11089;49.852;19.700;2024-02-14T10:47:40;18.10;99.90
21849;DHT22;11089;49.852;19.700;2024-02-14T10:50:43;18.60;99.90
21849;DHT22;11089;49.852;19.700;2024-02-14T10:53:46;18.80;99.90
21849;DHT22;11089;49.852;19.700;2024-02-14T10:56:49;19.10;99.90
21849;DHT22;11089;49.852;19.700;2024-02-14T10:59:53;19.10;99.90
21849;DHT22;11089;49.852;19.700;2024-02-14T11:02:55;19.20;99.90
21849;DHT22;11089;49.852;19.700;2024-02-14T11:05:56;18.60;99.90
21849;DHT22;11089;49.852;19.700;2024-02-14T11:09:03;17.10;99.90
21849;DHT22;11089;49.852;19.700;2024-02-14T11:12:11;16.80;99.90
21849;DHT22;11089;49.852;19.700;2024-02-14T11:15:20;16.80;99.90
21849;DHT22;11089;49.852;19.700;2024-02-14T11:18:25;16.20;99.90
21849;DHT22;11089;49.852;19.700;2024-02-14T11:21:30;16.10;99.90
21849;DHT22;11089;49.852;19.700;2024-02-14T11:24:31;16.20;99.90
21849;DHT22;11089;49.852;19.700;2024-02-14T11:27:35;16.10;99.90
21849;DHT22;11089;49.852;19.700;2024-02-14T11:30:36;16.10;99.90
21849;DHT22;11089;49.852;19.700;2024-02-14T11:33:37;15.50;99.90
21849;DHT22;11089;49.852;19.700;2024-02-14T11:36:42;14.60;99.90
21849;DHT22;11089;49.852;19.700;2024-02-14T11:39:43;14.40;99.90
21849;DHT22;11089;49.852;19.700;2024-02-14T11:42:46;15.00;99.90
21849;DHT22;11089;49.852;19.700;2024-02-14T11:45:48;15.20;99.90
21849;DHT22;11089;49.852;19.700;2024-02-14T11:48:55;15.30;99.90
21849;DHT22;11089;49.852;19.700;2024-02-14T11:51:56;15.20;99.90
21849;DHT22;11089;49.852;19.700;2024-02-14T11:54:57;15.20;99.90
21849;DHT22;11089;49.852;19.700;2024-02-14T11:58:00;15.10;99.90
21849;DHT22;11089;49.852;19.700;2024-02-14T12:01:03;14.90;99.90
21849;DHT22;11089;49.852;19.700;2024-02-14T12:04:08;14.80;99.90
21849;DHT22;11089;49.852;19.700;2024-02-14T12:07:10;14.60;99.90
21849;DHT22;11089;49.852;19.700;2024-02-14T12:10:11;14.20;99.90
21849;DHT22;11089;49.852;19.700;2024-02-14T12:13:14;13.80;99.90
21849;DHT22;11089;49.852;19.700;2024-02-14T12:16:15;13.60;99.90
21849;DHT22;11089;49.852;19.700;2024-02-14T12:19:16;13.40;99.90
21849;DHT22;11089;49.852;19.700;2024-02-14T12:22:19;13.80;99.90
21849;DHT22;11089;49.852;19.700;2024-02-14T12:25:20;14.00;99.90
21849;DHT22;11089;49.852;19.700;2024-02-14T12:28:23;13.70;99.90
21849;DHT22;11089;49.852;19.700;2024-02-14T12:31:25;13.90;99.90
21849;DHT22;11089;49.852;19.700;2024-02-14T12:34:27;14.10;99.90
21849;DHT22;11089;49.852;19.700;2024-02-14T12:37:28;14.50;99.90
21849;DHT22;11089;49.852;19.700;2024-02-14T12:40:30;14.50;99.90
21849;DHT22;11089;49.852;19.700;2024-02-14T12:43:31;14.50;99.90
21849;DHT22;11089;49.852;19.700;2024-02-14T12:46:31;14.90;99.90
21849;DHT22;11089;49.852;19.700;2024-02-14T12:49:34;15.40;99.90
21849;DHT22;11089;49.852;19.700;2024-02-14T12:52:35;15.50;99.90
21849;DHT22;11089;49.852;19.700;2024-02-14T12:55:36;15.70;99.90
21849;DHT22;11089;49.852;19.700;2024-02-14T12:58:36;15.80;99.90
21849;DHT22;11089;49.852;19.700;2024-02-14T13:01:37;16.00;99.90
21849;DHT22;11089;49.852;19.700;2024-02-14T13:04:40;15.70;99.90
21849;DHT22;11089;49.852;19.700;2024-02-14T13:07:44;15.50;99.90
21849;DHT22;11089;49.852;19.700;2024-02-14T13:10:46;15.60;99.90
21849;DHT22;11089;49.852;19.700;2024-02-14T13:13:47;15.70;99.90
21849;DHT22;11089;49.852;19.700;2024-02-14T13:16:48;14.70;99.90
21849;DHT22;11089;49.852;19.700;2024-02-14T13:19:49;14.00;99.90
21849;DHT22;11089;49.852;19.700;2024-02-14T13:22:50;14.10;99.90
21849;DHT22;11089;49.852;19.700;2024-02-14T13:25:52;14.00;99.90
21849;DHT22;11089;49.852;19.700;2024-02-14T13:28:53;13.70;99.90
21849;DHT22;11089;49.852;19.700;2024-02-14T13:31:54;13.80;99.90
21849;DHT22;11089;49.852;19.700;2024-02-14T13:34:55;13.60;99.90
21849;DHT22;11089;49.852;19.700;2024-02-14T13:37:57;13.40;99.90
21849;DHT22;11089;49.852;19.700;2024-02-14T13:40:58;13.40;99.90
21849;DHT22;11089;49.852;19.700;2024-02-14T13:44:00;12.90;99.90
21849;DHT22;11089;49.852;19.700;2024-02-14T13:47:00;12.70;99.90
21849;DHT22;11089;49.852;19.700;2024-02-14T13:50:01;12.80;99.90
21849;DHT22;11089;49.852;19.700;2024-02-14T13:53:05;12.90;99.90
21849;DHT22;11089;49.852;19.700;2024-02-14T13:56:06;12.90;99.90
21849;DHT22;11089;49.852;19.700;2024-02-14T13:59:07;12.90;99.90
21849;DHT22;11089;49.852;19.700;2024-02-14T14:02:08;12.80;99.90
21849;DHT22;11089;49.852;19.700;2024-02-14T14:05:10;12.50;99.90
21849;DHT22;11089;49.852;19.700;2024-02-14T14:08:11;11.80;99.90
21849;DHT22;11089;49.852;19.700;2024-02-14T14:11:13;11.70;99.90
21849;DHT22;11089;49.852;19.700;2024-02-14T14:14:14;11.70;99.90
21849;DHT22;11089;49.852;19.700;2024-02-14T14:17:18;11.90;99.90
21849;DHT22;11089;49.852;19.700;2024-02-14T14:20:19;11.60;99.90
21849;DHT22;11089;49.852;19.700;2024-02-14T14:23:20;11.60;99.90
21849;DHT22;11089;49.852;19.700;2024-02-14T14:26:21;11.80;99.90
21849;DHT22;11089;49.852;19.700;2024-02-14T14:29:22;12.00;99.90
21849;DHT22;11089;49.852;19.700;2024-02-14T14:32:23;11.80;99.90
21849;DHT22;11089;49.852;19.700;2024-02-14T14:35:24;11.70;99.90
21849;DHT22;11089;49.852;19.700;2024-02-14T14:38:24;11.60;99.90
21849;DHT22;11089;49.852;19.700;2024-02-14T14:41:27;11.50;99.90
21849;DHT22;11089;49.852;19.700;2024-02-14T14:44:29;11.10;99.90
21849;DHT22;11089;49.852;19.700;2024-02-14T14:47:31;10.80;99.90
21849;DHT22;11089;49.852;19.700;2024-02-14T14:50:32;10.80;99.90
21849;DHT22;11089;49.852;19.700;2024-02-14T14:53:32;10.70;99.90
21849;DHT22;11089;49.852;19.700;2024-02-14T14:56:35;10.30;99.90
21849;DHT22;11089;49.852;19.700;2024-02-14T14:59:36;10.40;99.90
21849;DHT22;11089;49.852;19.700;2024-02-14T15:02:40;10.50;99.90
21849;DHT22;11089;49.852;19.700;2024-02-14T15:05:41;10.20;99.90
21849;DHT22;11089;49.852;19.700;2024-02-14T15:08:42;10.30;99.90
21849;DHT22;11089;49.852;19.700;2024-02-14T15:11:44;10.00;99.90
21849;DHT22;11089;49.852;19.700;2024-02-14T15:14:45;10.00;99.90
21849;DHT22;11089;49.852;19.700;2024-02-14T15:17:46;9.90;99.90
21849;DHT22;11089;49.852;19.700;2024-02-14T15:20:47;9.80;99.90
21849;DHT22;11089;49.852;19.700;2024-02-14T15:23:48;9.70;99.90
21849;DHT22;11089;49.852;19.700;2024-02-14T15:26:48;9.60;99.90
21849;DHT22;11089;49.852;19.700;2024-02-14T15:29:50;9.50;99.90
21849;DHT22;11089;49.852;19.700;2024-02-14T15:33:05;9.30;99.90
21849;DHT22;11089;49.852;19.700;2024-02-14T15:36:19;9.30;99.90
21849;DHT22;11089;49.852;19.700;2024-02-14T15:39:21;9.10;99.90
21849;DHT22;11089;49.852;19.700;2024-02-14T15:42:21;8.90;99.90
21849;DHT22;11089;49.852;19.700;2024-02-14T15:45:23;8.80;99.90
21849;DHT22;11089;49.852;19.700;2024-02-14T15:48:24;8.70;99.90
21849;DHT22;11089;49.852;19.700;2024-02-14T15:51:30;8.50;99.90
21849;DHT22;11089;49.852;19.700;2024-02-14T15:54:32;8.40;99.90
21849;DHT22;11089;49.852;19.700;2024-02-14T15:57:34;8.20;99.90
21849;DHT22;11089;49.852;19.700;2024-02-14T16:00:35;8.20;99.90
21849;DHT22;11089;49.852;19.700;2024-02-14T16:03:36;8.00;99.90
21849;DHT22;11089;49.852;19.700;2024-02-14T16:06:37;7.90;99.90
21849;DHT22;11089;49.852;19.700;2024-02-14T16:09:38;7.70;99.90
21849;DHT22;11089;49.852;19.700;2024-02-14T16:12:42;7.70;99.90
21849;DHT22;11089;49.852;19.700;2024-02-14T16:15:44;7.60;99.90
21849;DHT22;11089;49.852;19.700;2024-02-14T16:18:45;7.50;99.90
21849;DHT22;11089;49.852;19.700;2024-02-14T16:21:46;7.40;99.90
21849;DHT22;11089;49.852;19.700;2024-02-14T16:24:47;7.30;99.90
21849;DHT22;11089;49.852;19.700;2024-02-14T16:27:49;7.20;99.90
21849;DHT22;11089;49.852;19.700;2024-02-14T16:30:51;7.10;99.90
21849;DHT22;11089;49.852;19.700;2024-02-14T16:33:52;7.00;99.90
21849;DHT22;11089;49.852;19.700;2024-02-14T16:36:53;6.90;99.90
21849;DHT22;11089;49.852;19.700;2024-02-14T16:39:55;6.80;99.90
21849;DHT22;11089;49.852;19.700;2024-02-14T16:42:56;6.80;99.90
21849;DHT22;11089;49.852;19.700;2024-02-14T16:45:59;6.70;99.90
21849;DHT22;11089;49.852;19.700;2024-02-14T16:49:00;6.50;99.90
21849;DHT22;11089;49.852;19.700;2024-02-14T16:52:02;6.50;99.90
21849;DHT22;11089;49.852;19.700;2024-02-14T16:55:03;6.40;99.90
21849;DHT22;11089;49.852;19.700;2024-02-14T16:58:05;6.30;99.90
21849;DHT22;11089;49.852;19.700;2024-02-14T17:01:06;6.30;99.90
21849;DHT22;11089;49.852;19.700;2024-02-14T17:04:08;6.20;99.90
21849;DHT22;11089;49.852;19.700;2024-02-14T17:07:10;6.20;99.90
21849;DHT22;11089;49.852;19.700;2024-02-14T17:10:15;6.10;99.90
21849;DHT22;11089;49.852;19.700;2024-02-14T17:13:16;6.00;99.90
21849;DHT22;11089;49.852;19.700;2024-02-14T17:16:17;6.00;99.90
21849;DHT22;11089;49.852;19.700;2024-02-14T17:19:18;5.90;99.90
21849;DHT22;11089;49.852;19.700;2024-02-14T17:22:19;5.90;99.90
21849;DHT22;11089;49.852;19.700;2024-02-14T17:25:20;5.80;99.90
21849;DHT22;11089;49.852;19.700;2024-02-14T17:28:22;5.70;99.90
21849;DHT22;11089;49.852;19.700;2024-02-14T17:31:23;5.60;99.90
21849;DHT22;11089;49.852;19.700;2024-02-14T17:34:24;5.60;99.90
21849;DHT22;11089;49.852;19.700;2024-02-14T17:37:26;5.60;99.90
21849;DHT22;11089;49.852;19.700;2024-02-14T17:40:27;5.60;99.90
21849;DHT22;11089;49.852;19.700;2024-02-14T17:43:29;5.50;99.90
21849;DHT22;11089;49.852;19.700;2024-02-14T17:46:30;5.50;1.00
21849;DHT22;11089;49.852;19.700;2024-02-14T17:49:31;5.60;1.00
21849;DHT22;11089;49.852;19.700;2024-02-14T17:52:32;5.40;1.00
21849;DHT22;11089;49.852;19.700;2024-02-14T17:55:34;5.30;1.00
21849;DHT22;11089;49.852;19.700;2024-02-14T17:58:35;5.10;1.00
21849;DHT22;11089;49.852;19.700;2024-02-14T18:01:36;5.10;1.00
21849;DHT22;11089;49.852;19.700;2024-02-14T18:04:37;5.10;1.00
21849;DHT22;11089;49.852;19.700;2024-02-14T18:07:38;5.00;1.00
21849;DHT22;11089;49.852;19.700;2024-02-14T18:10:39;5.00;1.00
21849;DHT22;11089;49.852;19.700;2024-02-14T18:13:42;4.90;1.00
21849;DHT22;11089;49.852;19.700;2024-02-14T18:16:43;5.00;1.00
21849;DHT22;11089;49.852;19.700;2024-02-14T18:19:44;4.90;1.00
21849;DHT22;11089;49.852;19.700;2024-02-14T18:22:45;5.00;1.00
21849;DHT22;11089;49.852;19.700;2024-02-14T18:25:46;5.00;1.00
21849;DHT22;11089;49.852;19.700;2024-02-14T18:28:47;4.80;1.00
21849;DHT22;11089;49.852;19.700;2024-02-14T18:31:48;4.80;1.00
21849;DHT22;11089;49.852;19.700;2024-02-14T18:34:49;4.90;1.00
21849;DHT22;11089;49.852;19.700;2024-02-14T18:37:50;4.90;1.00
21849;DHT22;11089;49.852;19.700;2024-02-14T18:40:50;4.90;1.00
21849;DHT22;11089;49.852;19.700;2024-02-14T18:43:51;4.70;1.00
21849;DHT22;11089;49.852;19.700;2024-02-14T18:46:55;4.70;1.00
21849;DHT22;11089;49.852;19.700;2024-02-14T18:49:56;4.90;1.00
21849;DHT22;11089;49.852;19.700;2024-02-14T18:52:57;5.00;1.00
21849;DHT22;11089;49.852;19.700;2024-02-14T18:55:57;4.90;1.00
21849;DHT22;11089;49.852;19.700;2024-02-14T18:58:58;4.90;1.00
21849;DHT22;11089;49.852;19.700;2024-02-14T19:01:59;4.90;1.00
21849;DHT22;11089;49.852;19.700;2024-02-14T19:05:00;4.90;1.00
21849;DHT22;11089;49.852;19.700;2024-02-14T19:08:01;4.80;1.00
21849;DHT22;11089;49.852;19.700;2024-02-14T19:11:02;4.90;1.00